香港 の空港の天気 - METARとTAF

香港国際空港 ( VHHH / HKG ) - 香港 赤リョウ角
飛行場実況気象(Metar)
観測時間08/05 09:00 HKT (08/05 01:00 UTC)
風向・風速南東 6m/s
視程10km以上
天気現象
少しの雲 雲底高度 300m
全天の4割程度の雲 雲底高度 670m
気温29℃
湿度79%
気圧1007hPa
METARVHHH 050100Z 14011KT 110V180 9999 FEW010 SCT022 29/25 Q1007 WS R07R NOSIG
過去の天気等 Google飛行場航空写真 Wunderground天気予報

過去48時間のMETAR

飛行場予報(TAF)
発表時間: 8/05 07:00 HKT (8/04 23:00 UTC)
予報対象時間: 5日8時 HKT ~ 6日14時 HKT
風向・風速南南東 5m/s
視程9000m
少しの雲 雲底高度 460m
全天の4割程度の雲 雲底高度 910m
5日8時 HKT ~ 5日11時 HKT に一時的に
風向・風速東 5m/s
視程3000m
天気現象しゅう雨
少しの積乱雲 雲底高度 300m
全天の4割程度の雲 雲底高度 760m
5日11時 HKT ~ 5日17時 HKT に一時的に
風向・風速不定 8m/s 瞬間風速 13m/s
視程2500m
天気現象雷雨 強いしゅう雨
少しの積乱雲 雲底高度 300m
全天の4割程度の雲 雲底高度 610m
全天の8割程度の雲 雲底高度 1220m
6日5時 HKT ~ 6日11時 HKT に一時的に
視程4000m
天気現象しゅう雨
少しの積乱雲 雲底高度 300m
全天の4割程度の雲 雲底高度 760m
TAF VHHH 042300Z 0500/0606 16010KT 9000 FEW015 SCT030 TX29/0506Z TX31/0606Z TN25/0522Z
TEMPO 0500/0503 10010KT 3000 SHRA FEW010CB SCT025
TEMPO 0503/0509 VRB15G25KT 2500 TSRA +SHRA FEW010CB SCT020 BKN040
TEMPO 0521/0603 4000 SHRA FEW010CB SCT025